createdAt,value
2022-09-10T00:00:46.696Z,17.97
2022-09-10T00:03:16.789Z,18.06
2022-09-10T00:05:49.119Z,18.04
2022-09-10T00:08:22.692Z,18.15
2022-09-10T00:10:54.838Z,18.24
2022-09-10T00:13:26.394Z,18.22
2022-09-10T00:15:58.750Z,18.12
2022-09-10T00:18:29.619Z,18.03
2022-09-10T00:21:01.831Z,17.85
2022-09-10T00:23:34.552Z,17.88
2022-09-10T00:26:15.131Z,17.95
2022-09-10T00:28:46.210Z,18.00
2022-09-10T00:31:16.884Z,17.99
2022-09-10T00:33:47.416Z,17.99
2022-09-10T00:36:19.497Z,17.92
2022-09-10T00:38:53.400Z,17.88
2022-09-10T00:41:27.049Z,17.88
2022-09-10T00:43:59.869Z,17.92
2022-09-10T00:46:42.781Z,17.90
2022-09-10T00:49:20.491Z,17.90
2022-09-10T00:51:54.548Z,18.00
2022-09-10T00:54:30.316Z,18.00
2022-09-10T00:57:11.505Z,17.94
2022-09-10T00:59:45.247Z,17.87
2022-09-10T01:02:15.468Z,17.79
2022-09-10T01:04:46.333Z,17.70
2022-09-10T01:07:18.136Z,17.69
2022-09-10T01:09:51.475Z,17.69
2022-09-10T01:12:44.074Z,17.69
2022-09-10T01:15:31.174Z,17.66
2022-09-10T01:18:19.088Z,17.61
2022-09-10T01:21:04.197Z,17.58
2022-09-10T01:24:08.816Z,17.56
2022-09-10T01:27:16.113Z,17.53
2022-09-10T01:29:57.667Z,17.56
2022-09-10T01:32:37.402Z,17.56
2022-09-10T01:35:17.397Z,17.61
2022-09-10T01:37:53.324Z,17.72
2022-09-10T01:40:29.942Z,17.85
2022-09-10T01:43:08.438Z,17.90
2022-09-10T01:46:06.016Z,17.89
2022-09-10T01:49:13.934Z,17.89
2022-09-10T01:52:16.212Z,17.82
2022-09-10T01:54:59.094Z,17.82
2022-09-10T01:57:48.952Z,17.74
2022-09-10T02:00:22.679Z,17.71
2022-09-10T02:03:04.701Z,17.77
2022-09-10T02:05:40.351Z,17.73
2022-09-10T02:08:17.797Z,17.65
2022-09-10T02:10:56.709Z,17.71
2022-09-10T02:13:31.992Z,17.66
2022-09-10T02:16:31.900Z,17.66
2022-09-10T02:19:05.630Z,17.60
2022-09-10T02:21:36.670Z,17.49
2022-09-10T02:24:10.813Z,17.42
2022-09-10T02:26:44.774Z,17.41
2022-09-10T02:29:19.416Z,17.39
2022-09-10T02:31:49.687Z,17.43
2022-09-10T02:34:23.205Z,17.41
2022-09-10T02:36:53.368Z,17.38
2022-09-10T02:39:23.339Z,17.39
2022-09-10T02:41:54.077Z,17.40
2022-09-10T02:44:27.291Z,17.43
2022-09-10T02:46:58.723Z,17.48
2022-09-10T02:49:31.830Z,17.39
2022-09-10T02:52:02.928Z,17.23
2022-09-10T02:54:33.212Z,17.23
2022-09-10T02:57:03.372Z,17.19
2022-09-10T02:59:33.964Z,17.13
2022-09-10T03:02:04.204Z,17.01
2022-09-10T03:04:37.136Z,16.89
2022-09-10T03:07:07.734Z,16.89
2022-09-10T03:09:41.134Z,16.87
2022-09-10T03:12:11.333Z,16.89
2022-09-10T03:14:41.427Z,16.85
2022-09-10T03:17:11.652Z,16.77
2022-09-10T03:19:44.443Z,16.68
2022-09-10T03:22:14.504Z,16.67
2022-09-10T03:24:44.784Z,16.66
2022-09-10T03:27:16.139Z,16.63
2022-09-10T03:29:46.814Z,16.70
2022-09-10T03:32:17.492Z,16.64
2022-09-10T03:34:50.294Z,16.65
2022-09-10T03:37:21.166Z,16.59
2022-09-10T03:39:51.856Z,16.50
2022-09-10T03:42:22.681Z,16.48
2022-09-10T03:44:52.850Z,16.50
2022-09-10T03:47:22.942Z,16.45
2022-09-10T03:49:56.341Z,16.39
2022-09-10T03:52:26.740Z,16.42
2022-09-10T03:54:56.829Z,16.32
2022-09-10T03:57:27.012Z,16.38
2022-09-10T03:59:57.170Z,16.38
2022-09-10T04:02:27.948Z,16.33
2022-09-10T04:05:00.686Z,16.27
2022-09-10T04:07:30.802Z,16.26
2022-09-10T04:10:00.930Z,16.26
2022-09-10T04:12:31.313Z,16.31
2022-09-10T04:15:01.683Z,16.29
2022-09-10T04:17:31.778Z,16.28
2022-09-10T04:20:05.546Z,16.23
2022-09-10T04:22:37.335Z,16.24
2022-09-10T04:25:08.718Z,16.32
2022-09-10T04:27:38.892Z,16.31
2022-09-10T04:30:11.707Z,16.31
2022-09-10T04:32:42.264Z,16.31
2022-09-10T04:35:16.257Z,16.41
2022-09-10T04:37:46.907Z,16.32
2022-09-10T04:40:17.043Z,16.31
2022-09-10T04:42:47.211Z,16.29
2022-09-10T04:45:19.244Z,16.30
2022-09-10T04:47:49.603Z,16.31
2022-09-10T04:50:22.970Z,16.31
2022-09-10T04:53:17.089Z,16.41
2022-09-10T04:55:49.988Z,16.47
2022-09-10T04:58:20.242Z,16.45
2022-09-10T05:00:50.526Z,16.49
2022-09-10T05:03:22.588Z,16.62
2022-09-10T05:05:55.552Z,16.68
2022-09-10T05:08:26.885Z,16.65
2022-09-10T05:11:01.287Z,16.69
2022-09-10T05:13:31.908Z,16.66
2022-09-10T05:16:03.380Z,16.65
2022-09-10T05:18:35.761Z,16.69
2022-09-10T05:21:09.388Z,16.70
2022-09-10T05:23:39.585Z,16.79
2022-09-10T05:26:10.275Z,16.85
2022-09-10T05:28:40.587Z,16.95
2022-09-10T05:31:12.944Z,16.95
2022-09-10T05:33:44.407Z,17.01
2022-09-10T05:36:18.234Z,17.12
2022-09-10T05:38:48.613Z,17.19
2022-09-10T05:41:19.638Z,17.30
2022-09-10T05:43:52.371Z,17.32
2022-09-10T05:46:22.503Z,17.34
2022-09-10T05:48:56.012Z,17.37
2022-09-10T05:51:30.800Z,17.49
2022-09-10T05:54:05.661Z,17.50
2022-09-10T05:56:36.495Z,17.46
2022-09-10T05:59:06.794Z,17.51
2022-09-10T06:01:37.097Z,17.52
2022-09-10T06:04:09.354Z,17.55
2022-09-10T06:06:42.604Z,17.73
2022-09-10T06:09:15.484Z,18.09
2022-09-10T06:12:02.028Z,18.23
2022-09-10T06:14:33.076Z,18.24
2022-09-10T06:17:03.397Z,18.34
2022-09-10T06:19:35.095Z,18.37
2022-09-10T06:22:11.200Z,18.33
2022-09-10T06:24:43.913Z,18.48
2022-09-10T06:27:14.559Z,18.49
2022-09-10T06:29:44.632Z,18.48
2022-09-10T06:32:16.068Z,18.40
2022-09-10T06:34:46.952Z,18.59
2022-09-10T06:37:19.605Z,18.66
2022-09-10T06:39:49.721Z,18.40
2022-09-10T06:42:20.007Z,18.44
2022-09-10T06:45:03.233Z,18.57
2022-09-10T06:48:37.129Z,18.39
2022-09-10T06:50:56.790Z,18.31
2022-09-10T06:53:34.635Z,18.37
2022-09-10T06:56:08.755Z,18.42
2022-09-10T06:58:39.695Z,18.27
2022-09-10T07:01:11.971Z,18.36
2022-09-10T07:03:43.517Z,18.55
2022-09-10T07:06:15.856Z,18.14
2022-09-10T07:08:50.177Z,18.21
2022-09-10T07:11:20.219Z,18.41
2022-09-10T07:13:53.937Z,19.15
2022-09-10T07:16:31.376Z,19.96
2022-09-10T07:19:03.381Z,20.63
2022-09-10T07:21:43.684Z,20.13
2022-09-10T07:24:20.142Z,19.78
2022-09-10T07:27:04.834Z,20.07
2022-09-10T07:29:36.721Z,20.50
2022-09-10T07:32:13.236Z,20.84
2022-09-10T07:34:43.816Z,21.38
2022-09-10T07:37:15.670Z,21.65
2022-09-10T07:39:48.874Z,22.18
2022-09-10T07:42:20.598Z,22.66
2022-09-10T07:44:52.666Z,22.93
2022-09-10T07:47:23.294Z,22.41
2022-09-10T07:49:53.143Z,21.88
2022-09-10T07:52:23.261Z,22.77
2022-09-10T07:54:59.325Z,23.58
2022-09-10T07:57:31.610Z,24.82
2022-09-10T08:00:03.466Z,24.63
2022-09-10T08:02:46.993Z,25.22
2022-09-10T08:05:21.734Z,26.86
2022-09-10T08:07:57.234Z,27.21
2022-09-10T08:10:32.453Z,26.61
2022-09-10T08:13:02.581Z,28.23
2022-09-10T08:15:32.408Z,29.03
2022-09-10T08:18:04.905Z,29.67
2022-09-10T08:20:35.538Z,29.79
2022-09-10T08:23:05.694Z,30.05
2022-09-10T08:25:38.489Z,30.18
2022-09-10T08:28:08.648Z,30.92
2022-09-10T08:30:39.048Z,30.28
2022-09-10T08:33:09.340Z,28.02
2022-09-10T08:35:42.279Z,29.41
2022-09-10T08:38:12.946Z,30.34
2022-09-10T08:40:49.162Z,29.07
2022-09-10T08:43:25.280Z,27.79
2022-09-10T08:45:57.791Z,25.37
2022-09-10T08:48:30.363Z,24.70
2022-09-10T08:51:07.126Z,25.06
2022-09-10T08:53:48.855Z,26.77
2022-09-10T08:56:26.105Z,29.20
2022-09-10T08:59:03.289Z,31.07
2022-09-10T09:01:48.308Z,31.36
2022-09-10T09:04:30.250Z,31.14
2022-09-10T09:07:07.232Z,30.42
2022-09-10T09:09:37.896Z,26.98
2022-09-10T09:12:20.640Z,25.00
2022-09-10T09:15:08.852Z,27.06
2022-09-10T09:17:59.868Z,25.15
2022-09-10T09:20:46.582Z,24.13
2022-09-10T09:23:25.378Z,24.81
2022-09-10T09:26:04.281Z,25.89
2022-09-10T09:28:50.190Z,24.47
2022-09-10T09:31:27.178Z,27.11
2022-09-10T09:34:07.703Z,28.69
2022-09-10T09:36:46.785Z,27.03
2022-09-10T09:39:26.498Z,28.54
2022-09-10T09:42:07.126Z,25.99
2022-09-10T09:44:48.983Z,25.57
2022-09-10T09:47:19.208Z,26.61
2022-09-10T09:49:52.215Z,28.31
2022-09-10T09:52:25.441Z,28.79
2022-09-10T09:55:14.377Z,28.85
2022-09-10T09:57:47.261Z,28.98
2022-09-10T10:00:40.899Z,29.17
2022-09-10T10:03:26.881Z,30.36
2022-09-10T10:06:06.097Z,31.08
2022-09-10T10:08:41.526Z,31.27
2022-09-10T10:11:12.576Z,29.81
2022-09-10T10:13:46.104Z,27.51
2022-09-10T10:16:26.922Z,26.09
2022-09-10T10:18:57.241Z,24.74
2022-09-10T10:21:34.604Z,24.25
2022-09-10T10:24:06.103Z,26.08
2022-09-10T10:26:38.475Z,27.15
2022-09-10T10:29:10.871Z,27.82
2022-09-10T10:31:47.395Z,28.51
2022-09-10T10:34:40.516Z,29.03
2022-09-10T10:37:18.608Z,29.67
2022-09-10T10:40:14.758Z,27.83
2022-09-10T10:42:54.239Z,25.78
2022-09-10T10:45:52.737Z,26.99
2022-09-10T10:48:40.345Z,27.51
2022-09-10T10:51:19.771Z,28.92
2022-09-10T10:54:14.256Z,28.54
2022-09-10T10:56:56.419Z,29.04
2022-09-10T10:59:44.746Z,30.30
2022-09-10T11:02:20.955Z,31.36
2022-09-10T11:04:56.687Z,31.57
2022-09-10T11:07:34.022Z,32.26
2022-09-10T11:10:15.609Z,33.26
2022-09-10T11:12:52.056Z,33.69
2022-09-10T11:15:31.616Z,32.14
2022-09-10T11:18:09.854Z,32.11
2022-09-10T11:20:49.335Z,32.59
2022-09-10T11:23:29.769Z,32.89
2022-09-10T11:26:06.780Z,31.29
2022-09-10T11:28:43.683Z,31.73
2022-09-10T11:31:32.344Z,32.68
2022-09-10T11:34:08.776Z,29.62
2022-09-10T11:36:48.128Z,28.41
2022-09-10T11:39:25.201Z,27.14
2022-09-10T11:41:58.125Z,26.84
2022-09-10T11:44:47.248Z,27.45
2022-09-10T11:47:23.029Z,27.70
2022-09-10T11:50:01.288Z,26.40
2022-09-10T11:52:36.431Z,27.20
2022-09-10T11:55:08.621Z,27.02
2022-09-10T11:57:56.961Z,28.76
2022-09-10T12:00:27.196Z,28.08
2022-09-10T12:03:26.739Z,27.95
2022-09-10T12:06:03.846Z,30.51
2022-09-10T12:08:55.560Z,30.99
2022-09-10T12:11:35.572Z,32.60
2022-09-10T12:14:10.967Z,34.42
2022-09-10T12:16:48.444Z,34.28
2022-09-10T12:19:27.751Z,35.17
2022-09-10T12:22:01.815Z,35.32
2022-09-10T12:24:37.381Z,34.27
2022-09-10T12:27:10.211Z,32.34
2022-09-10T12:29:42.629Z,31.92
2022-09-10T12:32:39.722Z,31.43
2022-09-10T12:35:49.612Z,30.39
2022-09-10T12:38:52.758Z,30.70
2022-09-10T12:42:02.473Z,32.13
2022-09-10T12:44:56.793Z,34.19
2022-09-10T12:47:50.430Z,35.02
2022-09-10T12:50:37.219Z,33.04
2022-09-10T12:53:54.221Z,34.62
2022-09-10T12:57:12.874Z,31.85
2022-09-10T13:00:14.278Z,29.51
2022-09-10T13:02:53.625Z,31.17
2022-09-10T13:05:35.115Z,33.28
2022-09-10T13:08:21.449Z,34.09
2022-09-10T13:11:11.769Z,34.67
2022-09-10T13:13:47.996Z,34.85
2022-09-10T13:16:21.954Z,34.53
2022-09-10T13:18:57.016Z,33.12
2022-09-10T13:21:57.349Z,35.07
2022-09-10T13:24:43.338Z,33.85
2022-09-10T13:27:25.483Z,29.92
2022-09-10T13:30:17.522Z,28.32
2022-09-10T13:32:53.773Z,27.55
2022-09-10T13:36:06.905Z,26.73
2022-09-10T13:39:09.629Z,25.63
2022-09-10T13:42:20.821Z,24.71
2022-09-10T13:45:17.264Z,23.89
2022-09-10T13:47:52.172Z,23.08
2022-09-10T13:50:27.107Z,22.74
2022-09-10T13:53:01.782Z,22.07
2022-09-10T13:55:34.252Z,21.72
2022-09-10T13:58:12.211Z,21.00
2022-09-10T14:00:56.115Z,20.84
2022-09-10T14:03:28.690Z,20.76
2022-09-10T14:06:01.795Z,20.69
2022-09-10T14:08:35.793Z,20.49
2022-09-10T14:11:16.610Z,20.48
2022-09-10T14:13:51.949Z,20.30
2022-09-10T14:16:32.433Z,20.27
2022-09-10T14:19:05.808Z,20.24
2022-09-10T14:21:36.219Z,20.26
2022-09-10T14:24:06.508Z,20.31
2022-09-10T14:26:36.713Z,20.47
2022-09-10T14:29:27.148Z,20.65
2022-09-10T14:32:00.416Z,20.86
2022-09-10T14:34:36.256Z,21.33
2022-09-10T14:37:37.896Z,23.84
2022-09-10T14:40:21.684Z,24.03
2022-09-10T14:42:53.043Z,25.38
2022-09-10T14:45:42.525Z,28.34
2022-09-10T14:48:37.143Z,29.87
2022-09-10T14:51:14.574Z,31.14
2022-09-10T14:53:45.738Z,32.17
2022-09-10T14:56:25.853Z,33.08
2022-09-10T14:59:02.059Z,33.44
2022-09-10T15:01:34.507Z,31.77
2022-09-10T15:04:07.235Z,30.80
2022-09-10T15:06:37.279Z,31.88
2022-09-10T15:09:07.857Z,33.06
2022-09-10T15:11:40.039Z,33.55
2022-09-10T15:14:16.175Z,32.62
2022-09-10T15:16:46.697Z,33.36
2022-09-10T15:19:19.657Z,33.67
2022-09-10T15:21:50.155Z,34.05
2022-09-10T15:24:23.829Z,34.20
2022-09-10T15:26:56.499Z,33.90
2022-09-10T15:29:26.592Z,33.22
2022-09-10T15:31:59.574Z,32.92
2022-09-10T15:34:32.290Z,31.42
2022-09-10T15:37:03.155Z,30.05
2022-09-10T15:39:33.367Z,30.22
2022-09-10T15:42:03.834Z,29.13
2022-09-10T15:44:34.328Z,27.70
2022-09-10T15:47:05.179Z,26.35
2022-09-10T15:49:37.991Z,25.48
2022-09-10T15:52:08.246Z,25.40
2022-09-10T15:54:38.828Z,25.94
2022-09-10T15:57:09.014Z,25.66
2022-09-10T15:59:38.841Z,24.69
2022-09-10T16:02:14.750Z,24.14
2022-09-10T16:04:47.563Z,23.77
2022-09-10T16:07:17.703Z,23.21
2022-09-10T16:09:47.766Z,22.79
2022-09-10T16:12:17.961Z,22.26
2022-09-10T16:14:48.052Z,22.06
2022-09-10T16:17:18.346Z,21.84
2022-09-10T16:19:51.679Z,21.72
2022-09-10T16:22:21.852Z,21.67
2022-09-10T16:24:51.910Z,21.51
2022-09-10T16:27:22.744Z,21.53
2022-09-10T16:29:52.827Z,21.55
2022-09-10T16:32:22.934Z,21.45
2022-09-10T16:34:55.584Z,21.27
2022-09-10T16:37:26.261Z,21.24
2022-09-10T16:39:56.832Z,21.17
2022-09-10T16:42:27.424Z,21.07
2022-09-10T16:44:57.288Z,20.86
2022-09-10T16:47:27.431Z,20.81
2022-09-10T16:50:00.159Z,20.62
2022-09-10T16:52:30.970Z,20.56
2022-09-10T16:55:02.792Z,20.46
2022-09-10T16:57:33.031Z,20.38
2022-09-10T17:00:03.124Z,20.27
2022-09-10T17:02:34.745Z,20.28
2022-09-10T17:05:08.212Z,20.25
2022-09-10T17:07:38.332Z,20.25
2022-09-10T17:10:09.820Z,20.31
2022-09-10T17:12:40.083Z,20.34
2022-09-10T17:15:11.676Z,20.14
2022-09-10T17:17:41.785Z,20.00
2022-09-10T17:20:14.683Z,19.93
2022-09-10T17:22:44.751Z,19.90
2022-09-10T17:25:14.922Z,19.88
2022-09-10T17:27:45.004Z,19.92
2022-09-10T17:30:15.664Z,19.97
2022-09-10T17:32:45.778Z,19.87
2022-09-10T17:35:18.607Z,19.81
2022-09-10T17:37:49.193Z,19.85
2022-09-10T17:40:20.173Z,19.96
2022-09-10T17:42:51.673Z,19.95
2022-09-10T17:45:22.578Z,19.73
2022-09-10T17:47:52.622Z,19.62
2022-09-10T17:50:25.422Z,19.46
2022-09-10T17:52:55.445Z,19.38
2022-09-10T17:55:25.696Z,19.21
2022-09-10T17:57:56.215Z,19.12
2022-09-10T18:00:26.424Z,19.13
2022-09-10T18:02:56.582Z,19.17
2022-09-10T18:05:29.299Z,19.14
2022-09-10T18:07:59.358Z,19.06
2022-09-10T18:10:29.499Z,19.08
2022-09-10T18:13:00.418Z,19.22
2022-09-10T18:15:31.907Z,19.25
2022-09-10T18:18:02.261Z,19.35
2022-09-10T18:20:34.990Z,19.45
2022-09-10T18:23:05.096Z,19.47
2022-09-10T18:25:35.954Z,19.41
2022-09-10T18:28:06.189Z,19.27
2022-09-10T18:30:36.383Z,19.26
2022-09-10T18:33:06.532Z,19.21
2022-09-10T18:35:41.134Z,19.21
2022-09-10T18:38:11.256Z,19.18
2022-09-10T18:40:42.647Z,19.10
2022-09-10T18:43:13.742Z,19.12
2022-09-10T18:45:43.801Z,19.18
2022-09-10T18:48:13.886Z,19.21
2022-09-10T18:50:47.367Z,19.16
2022-09-10T18:53:18.449Z,19.19
2022-09-10T18:55:48.954Z,19.17
2022-09-10T18:58:19.260Z,19.11
2022-09-10T19:00:49.355Z,19.19
2022-09-10T19:03:19.673Z,19.28
2022-09-10T19:05:52.370Z,19.39
2022-09-10T19:08:22.426Z,19.38
2022-09-10T19:10:54.439Z,19.41
2022-09-10T19:13:25.287Z,19.36
2022-09-10T19:15:59.265Z,19.23
2022-09-10T19:18:29.429Z,19.18
2022-09-10T19:21:06.935Z,19.29
2022-09-10T19:23:37.726Z,19.38
2022-09-10T19:26:10.019Z,19.34
2022-09-10T19:28:40.744Z,19.34
2022-09-10T19:31:11.645Z,19.20
2022-09-10T19:33:42.138Z,19.22
2022-09-10T19:36:17.995Z,19.17
2022-09-10T19:38:49.184Z,19.09
2022-09-10T19:41:21.039Z,19.23
2022-09-10T19:43:53.954Z,19.14
2022-09-10T19:46:28.469Z,19.08
2022-09-10T19:48:59.572Z,18.98
2022-09-10T19:51:36.226Z,18.81
2022-09-10T19:54:06.814Z,18.85
2022-09-10T19:56:41.301Z,18.86
2022-09-10T19:59:12.892Z,18.78
2022-09-10T20:01:46.279Z,18.78
2022-09-10T20:04:17.123Z,18.78
2022-09-10T20:06:50.469Z,18.74
2022-09-10T20:09:20.923Z,18.64
2022-09-10T20:11:51.229Z,18.64
2022-09-10T20:14:21.356Z,18.69
2022-09-10T20:16:51.491Z,18.62
2022-09-10T20:19:22.200Z,18.68
2022-09-10T20:21:54.925Z,18.71
2022-09-10T20:24:25.119Z,18.70
2022-09-10T20:26:55.350Z,18.53
2022-09-10T20:29:25.697Z,18.50
2022-09-10T20:31:56.046Z,18.54
2022-09-10T20:34:26.549Z,18.51
2022-09-10T20:36:59.938Z,18.52
2022-09-10T20:39:31.778Z,18.54
2022-09-10T20:42:02.026Z,18.52
2022-09-10T20:44:32.115Z,18.66
2022-09-10T20:47:03.628Z,18.59
2022-09-10T20:49:33.815Z,18.59
2022-09-10T20:52:07.438Z,18.59
2022-09-10T20:54:37.517Z,18.63
2022-09-10T20:57:08.079Z,18.58
2022-09-10T20:59:38.148Z,18.55
2022-09-10T21:02:08.709Z,18.56
2022-09-10T21:04:39.474Z,18.50
2022-09-10T21:07:11.987Z,18.44
2022-09-10T21:09:42.203Z,18.49
2022-09-10T21:12:13.268Z,18.58
2022-09-10T21:14:43.431Z,18.51
2022-09-10T21:17:13.591Z,18.57
2022-09-10T21:19:43.736Z,18.57
2022-09-10T21:22:16.370Z,18.51
2022-09-10T21:24:46.507Z,18.50
2022-09-10T21:27:16.771Z,18.37
2022-09-10T21:29:47.217Z,18.27
2022-09-10T21:32:17.283Z,18.32
2022-09-10T21:34:47.503Z,18.32
2022-09-10T21:37:20.278Z,18.44
2022-09-10T21:39:50.366Z,18.47
2022-09-10T21:42:20.625Z,18.35
2022-09-10T21:44:50.737Z,18.45
2022-09-10T21:47:20.820Z,18.48
2022-09-10T21:49:51.095Z,18.33
2022-09-10T21:52:24.147Z,18.30
2022-09-10T21:54:54.182Z,18.26
2022-09-10T21:57:24.611Z,18.14
2022-09-10T21:59:54.663Z,18.08
2022-09-10T22:02:24.804Z,17.91
2022-09-10T22:04:54.942Z,17.95
2022-09-10T22:07:27.867Z,17.95
2022-09-10T22:09:57.954Z,17.94
2022-09-10T22:12:28.433Z,17.90
2022-09-10T22:14:59.002Z,17.91
2022-09-10T22:17:29.146Z,17.88
2022-09-10T22:19:59.221Z,17.76
2022-09-10T22:22:31.926Z,17.85
2022-09-10T22:25:02.134Z,17.83
2022-09-10T22:27:32.223Z,17.89
2022-09-10T22:30:04.909Z,17.85
2022-09-10T22:32:36.775Z,17.71
2022-09-10T22:35:07.626Z,17.72
2022-09-10T22:37:40.264Z,17.73
2022-09-10T22:40:11.671Z,17.63
2022-09-10T22:42:41.765Z,17.64
2022-09-10T22:45:13.852Z,17.70
2022-09-10T22:47:43.982Z,17.69
2022-09-10T22:50:14.084Z,17.63
2022-09-10T22:52:46.737Z,17.66
2022-09-10T22:55:16.945Z,17.67
2022-09-10T22:57:47.070Z,17.70
2022-09-10T23:00:18.027Z,17.77
2022-09-10T23:02:48.122Z,17.78
2022-09-10T23:05:18.487Z,17.77
2022-09-10T23:07:52.728Z,17.66
2022-09-10T23:10:22.932Z,17.49
2022-09-10T23:12:53.128Z,17.49
2022-09-10T23:15:23.241Z,17.49
2022-09-10T23:17:53.817Z,17.53
2022-09-10T23:20:25.165Z,17.52
2022-09-10T23:22:57.978Z,17.52
2022-09-10T23:25:28.139Z,17.51
2022-09-10T23:27:58.191Z,17.47
2022-09-10T23:30:29.968Z,17.46
2022-09-10T23:33:00.714Z,17.42
2022-09-10T23:35:30.826Z,17.41
2022-09-10T23:38:03.489Z,17.36
2022-09-10T23:40:34.296Z,17.35
2022-09-10T23:43:04.165Z,17.33
2022-09-10T23:45:34.236Z,17.34
2022-09-10T23:48:05.239Z,17.39
2022-09-10T23:50:35.488Z,17.31
2022-09-10T23:53:09.276Z,17.35
2022-09-10T23:55:40.246Z,17.34
2022-09-10T23:58:10.643Z,17.40
